Detall de PIREP

Printer-friendly versionPDF version

[2011/05/17 15:39:00]
Flight IATA:CT2110
Pilot Number:041
Company ICAO:CAT
Aircraft Type:F70/A
PAX:61
Aircraft Registration:PFJ
Departing Airport: LEVC
Destination Airport: LEST
Alternate Airport:LECO
Online: VATSIM
Route:CENTA A33 PRADO UN733 FORNO
Flight Level:F290
No Slew and time accel
No pause
Crash detect
Detect pilot in Cockpit between each 30 and 45 minutes
15:39 Zero fuel Weight: 68920 Lbs, Fuel Weight: 13489 Lbs
15:39 VATSIM:LEVC 171500Z 12011KT CAVOK 22/12 Q1021 NOSIG
15:39 VATSIM:LEST 171500Z 33004KT 280V060 9999 SCT060CB 23/08 Q1019 NOSIG
15:39 VOICE CATALONIAN
15:42 Parking Brakes off
15:50 Take-off
15:50 Take off Weight: 81879 Lbs
15:50 Wind: 119º @ 011 Knots Heading: 116º
15:50 POS N39º 29´ 09´´ W000º 28´ 22´´
15:50 Gear Up: 206 Knots
15:50 Flaps:1 at 206 Knots
15:50 Flaps:0 at 242 Knots
16:05 Wind:201º@005 Knots Heading: 298º Ground Speed: 375 Knots Altitude 26263 ft
16:06 TOC
16:06 Fuel Weight: 11123 Lb
16:20 Wind:177º@007 Knots Heading: 295º Ground Speed: 429 Knots Altitude 29133 ft
16:35 Wind:211º@001 Knots Heading: 304º Ground Speed: 426 Knots Altitude 29192 ft
16:37 TOD
16:37 Fuel Weight: 8587 Lb
16:50 Wind:052º@008 Knots Heading: 305º Ground Speed: 273 Knots Altitude 6151 ft
17:05 Wind:063º@009 Knots Heading: 075º Ground Speed: 245 Knots Altitude 3999 ft
17:08 Flaps:1 at 236 Knots
17:11 Flaps:2 at 214 Knots
17:13 Flaps:3 at 185 Knots
17:13 Gear Down: 180 Knots
17:16 TouchDown:Rate -252 ft/min Speed: 123 Knots
17:16 VATSIM:LEST 171700Z 08003KT 030V140 9999 TS -SHRA SCT052CB 17/14 Q1018 NOSIG
17:16 Land
17:16 Wind:080º@003 Knots
17:16 Heading: 348º
17:16 Flight Duration: 01:26
17:16 Landing Weight: 75481 Lbs
17:16 POS N42º 53´ 42´´ W008º 24´ 53´´
17:17 Parking brakes on
17:17 Block to Block Duration: 01:35
17:17 Final Fuel: 6510 Lbls
17:17 Spent Fuel: 6979 Lbls
17:17 Flight Length: 481 NM
17:17 TOD Land Length: 176 NM

Exportar CSV

Powered by Drupal - Modified by Danger4k